sensor_id;sensor_type;location;lat;lon;timestamp;temperature;humidity
5901;DHT22;2976;49.764;9.796;2023-04-24T00:00:01;10.10;99.90
5901;DHT22;2976;49.764;9.796;2023-04-24T00:02:26;10.10;99.90
5901;DHT22;2976;49.764;9.796;2023-04-24T00:04:52;10.10;99.90
5901;DHT22;2976;49.764;9.796;2023-04-24T00:07:17;10.10;99.90
5901;DHT22;2976;49.764;9.796;2023-04-24T00:09:43;10.10;99.90
5901;DHT22;2976;49.764;9.796;2023-04-24T00:12:09;10.10;99.90
5901;DHT22;2976;49.764;9.796;2023-04-24T00:14:35;10.10;99.90
5901;DHT22;2976;49.764;9.796;2023-04-24T00:17:01;10.10;99.90
5901;DHT22;2976;49.764;9.796;2023-04-24T00:19:28;10.20;99.90
5901;DHT22;2976;49.764;9.796;2023-04-24T00:21:54;10.20;99.90
5901;DHT22;2976;49.764;9.796;2023-04-24T00:24:20;10.20;99.90
5901;DHT22;2976;49.764;9.796;2023-04-24T00:26:46;10.20;99.90
5901;DHT22;2976;49.764;9.796;2023-04-24T00:29:12;10.20;99.90
5901;DHT22;2976;49.764;9.796;2023-04-24T00:31:37;10.10;99.90
5901;DHT22;2976;49.764;9.796;2023-04-24T00:34:03;10.00;99.90
5901;DHT22;2976;49.764;9.796;2023-04-24T00:36:30;9.90;99.90
5901;DHT22;2976;49.764;9.796;2023-04-24T00:38:56;9.90;99.90
5901;DHT22;2976;49.764;9.796;2023-04-24T00:41:22;9.90;99.90
5901;DHT22;2976;49.764;9.796;2023-04-24T00:43:48;9.90;99.90
5901;DHT22;2976;49.764;9.796;2023-04-24T00:46:14;9.90;99.90
5901;DHT22;2976;49.764;9.796;2023-04-24T00:48:40;9.80;99.90
5901;DHT22;2976;49.764;9.796;2023-04-24T00:51:06;9.70;99.90
5901;DHT22;2976;49.764;9.796;2023-04-24T00:53:31;9.80;99.90
5901;DHT22;2976;49.764;9.796;2023-04-24T00:55:58;9.80;99.90
5901;DHT22;2976;49.764;9.796;2023-04-24T00:58:24;9.90;99.90
5901;DHT22;2976;49.764;9.796;2023-04-24T01:00:50;9.90;99.90
5901;DHT22;2976;49.764;9.796;2023-04-24T01:03:19;9.90;99.90
5901;DHT22;2976;49.764;9.796;2023-04-24T01:05:45;9.90;99.90
5901;DHT22;2976;49.764;9.796;2023-04-24T01:08:11;10.00;99.90
5901;DHT22;2976;49.764;9.796;2023-04-24T01:10:37;10.00;99.90
5901;DHT22;2976;49.764;9.796;2023-04-24T01:13:04;10.00;99.90
5901;DHT22;2976;49.764;9.796;2023-04-24T01:15:29;10.10;99.90
5901;DHT22;2976;49.764;9.796;2023-04-24T01:17:55;10.10;99.90
5901;DHT22;2976;49.764;9.796;2023-04-24T01:20:21;10.00;99.90
5901;DHT22;2976;49.764;9.796;2023-04-24T01:22:48;9.90;99.90
5901;DHT22;2976;49.764;9.796;2023-04-24T01:25:13;9.90;99.90
5901;DHT22;2976;49.764;9.796;2023-04-24T01:27:39;9.90;99.90
5901;DHT22;2976;49.764;9.796;2023-04-24T01:30:06;9.90;99.90
5901;DHT22;2976;49.764;9.796;2023-04-24T01:32:32;9.90;99.90
5901;DHT22;2976;49.764;9.796;2023-04-24T01:34:58;9.90;99.90
5901;DHT22;2976;49.764;9.796;2023-04-24T01:37:23;9.90;99.90
5901;DHT22;2976;49.764;9.796;2023-04-24T01:39:49;9.90;99.90
5901;DHT22;2976;49.764;9.796;2023-04-24T01:42:15;9.80;99.90
5901;DHT22;2976;49.764;9.796;2023-04-24T01:44:41;9.90;99.90
5901;DHT22;2976;49.764;9.796;2023-04-24T01:47:07;9.80;99.90
5901;DHT22;2976;49.764;9.796;2023-04-24T01:49:33;9.90;99.90
5901;DHT22;2976;49.764;9.796;2023-04-24T01:51:58;9.90;99.90
5901;DHT22;2976;49.764;9.796;2023-04-24T01:54:24;9.80;99.90
5901;DHT22;2976;49.764;9.796;2023-04-24T01:56:49;9.80;99.90
5901;DHT22;2976;49.764;9.796;2023-04-24T01:59:17;9.80;99.90
5901;DHT22;2976;49.764;9.796;2023-04-24T02:01:43;9.70;99.90
5901;DHT22;2976;49.764;9.796;2023-04-24T02:04:09;9.70;99.90
5901;DHT22;2976;49.764;9.796;2023-04-24T02:06:34;9.70;99.90
5901;DHT22;2976;49.764;9.796;2023-04-24T02:09:00;9.80;99.90
5901;DHT22;2976;49.764;9.796;2023-04-24T02:11:26;9.70;99.90
5901;DHT22;2976;49.764;9.796;2023-04-24T02:13:52;9.70;99.90
5901;DHT22;2976;49.764;9.796;2023-04-24T02:16:18;9.70;99.90
5901;DHT22;2976;49.764;9.796;2023-04-24T02:18:44;9.60;99.90
5901;DHT22;2976;49.764;9.796;2023-04-24T02:21:10;9.60;99.90
5901;DHT22;2976;49.764;9.796;2023-04-24T02:23:35;9.60;99.90
5901;DHT22;2976;49.764;9.796;2023-04-24T02:26:01;9.70;99.90
5901;DHT22;2976;49.764;9.796;2023-04-24T02:28:26;9.60;99.90
5901;DHT22;2976;49.764;9.796;2023-04-24T02:30:52;9.60;99.90
5901;DHT22;2976;49.764;9.796;2023-04-24T02:33:17;9.70;99.90
5901;DHT22;2976;49.764;9.796;2023-04-24T02:35:43;9.60;99.90
5901;DHT22;2976;49.764;9.796;2023-04-24T02:38:08;9.60;99.90
5901;DHT22;2976;49.764;9.796;2023-04-24T02:40:34;9.60;99.90
5901;DHT22;2976;49.764;9.796;2023-04-24T02:43:00;9.50;99.90
5901;DHT22;2976;49.764;9.796;2023-04-24T02:45:25;9.40;99.90
5901;DHT22;2976;49.764;9.796;2023-04-24T02:47:51;9.40;99.90
5901;DHT22;2976;49.764;9.796;2023-04-24T02:50:16;9.40;99.90
5901;DHT22;2976;49.764;9.796;2023-04-24T02:52:42;9.50;99.90
5901;DHT22;2976;49.764;9.796;2023-04-24T02:55:07;9.40;99.90
5901;DHT22;2976;49.764;9.796;2023-04-24T02:57:33;9.50;99.90
5901;DHT22;2976;49.764;9.796;2023-04-24T02:59:59;9.50;99.90
5901;DHT22;2976;49.764;9.796;2023-04-24T03:02:25;9.50;99.90
5901;DHT22;2976;49.764;9.796;2023-04-24T03:04:50;9.50;99.90
5901;DHT22;2976;49.764;9.796;2023-04-24T03:07:16;9.50;99.90
5901;DHT22;2976;49.764;9.796;2023-04-24T03:09:41;9.40;99.90
5901;DHT22;2976;49.764;9.796;2023-04-24T03:12:07;9.30;99.90
5901;DHT22;2976;49.764;9.796;2023-04-24T03:14:32;9.30;99.90
5901;DHT22;2976;49.764;9.796;2023-04-24T03:16:58;9.40;99.90
5901;DHT22;2976;49.764;9.796;2023-04-24T03:19:24;9.40;99.90
5901;DHT22;2976;49.764;9.796;2023-04-24T03:21:49;9.40;99.90
5901;DHT22;2976;49.764;9.796;2023-04-24T03:24:15;9.30;99.90
5901;DHT22;2976;49.764;9.796;2023-04-24T03:26:41;9.50;99.90
5901;DHT22;2976;49.764;9.796;2023-04-24T03:29:06;9.50;99.90
5901;DHT22;2976;49.764;9.796;2023-04-24T03:31:32;9.50;99.90
5901;DHT22;2976;49.764;9.796;2023-04-24T03:33:57;9.50;99.90
5901;DHT22;2976;49.764;9.796;2023-04-24T03:36:23;9.50;99.90
5901;DHT22;2976;49.764;9.796;2023-04-24T03:38:48;9.50;99.90
5901;DHT22;2976;49.764;9.796;2023-04-24T03:41:14;9.50;99.90
5901;DHT22;2976;49.764;9.796;2023-04-24T03:43:39;9.40;99.90
5901;DHT22;2976;49.764;9.796;2023-04-24T03:46:05;9.30;99.90
5901;DHT22;2976;49.764;9.796;2023-04-24T03:48:30;9.20;99.90
5901;DHT22;2976;49.764;9.796;2023-04-24T03:50:56;9.30;99.90
5901;DHT22;2976;49.764;9.796;2023-04-24T03:53:21;9.10;99.90
5901;DHT22;2976;49.764;9.796;2023-04-24T03:55:47;9.10;99.90
5901;DHT22;2976;49.764;9.796;2023-04-24T03:58:12;9.10;99.90
5901;DHT22;2976;49.764;9.796;2023-04-24T04:00:41;9.10;99.90
5901;DHT22;2976;49.764;9.796;2023-04-24T04:03:06;9.10;99.90
5901;DHT22;2976;49.764;9.796;2023-04-24T04:05:32;8.90;99.90
5901;DHT22;2976;49.764;9.796;2023-04-24T04:07:57;8.90;99.90
5901;DHT22;2976;49.764;9.796;2023-04-24T04:10:23;8.90;99.90
5901;DHT22;2976;49.764;9.796;2023-04-24T04:12:48;8.90;99.90
5901;DHT22;2976;49.764;9.796;2023-04-24T04:15:14;8.90;99.90
5901;DHT22;2976;49.764;9.796;2023-04-24T04:17:40;8.80;99.90
5901;DHT22;2976;49.764;9.796;2023-04-24T04:20:06;8.90;99.90
5901;DHT22;2976;49.764;9.796;2023-04-24T04:22:38;8.90;99.90
5901;DHT22;2976;49.764;9.796;2023-04-24T04:25:04;8.90;99.90
5901;DHT22;2976;49.764;9.796;2023-04-24T04:27:30;8.90;99.90
5901;DHT22;2976;49.764;9.796;2023-04-24T04:29:58;9.00;99.90
5901;DHT22;2976;49.764;9.796;2023-04-24T04:32:26;9.10;99.90
5901;DHT22;2976;49.764;9.796;2023-04-24T04:34:52;9.30;99.90
5901;DHT22;2976;49.764;9.796;2023-04-24T04:37:18;9.40;99.90
5901;DHT22;2976;49.764;9.796;2023-04-24T04:39:44;9.40;99.90
5901;DHT22;2976;49.764;9.796;2023-04-24T04:42:09;9.50;99.90
5901;DHT22;2976;49.764;9.796;2023-04-24T04:44:35;9.50;99.90
5901;DHT22;2976;49.764;9.796;2023-04-24T04:47:01;9.40;99.90
5901;DHT22;2976;49.764;9.796;2023-04-24T04:49:31;9.50;99.90
5901;DHT22;2976;49.764;9.796;2023-04-24T04:51:56;9.40;99.90
5901;DHT22;2976;49.764;9.796;2023-04-24T04:54:22;9.30;99.90
5901;DHT22;2976;49.764;9.796;2023-04-24T04:56:50;9.30;99.90
5901;DHT22;2976;49.764;9.796;2023-04-24T04:59:15;9.20;99.90
5901;DHT22;2976;49.764;9.796;2023-04-24T05:01:41;9.30;99.90
5901;DHT22;2976;49.764;9.796;2023-04-24T05:04:07;9.30;99.90
5901;DHT22;2976;49.764;9.796;2023-04-24T05:06:32;9.10;99.90
5901;DHT22;2976;49.764;9.796;2023-04-24T05:08:58;9.20;99.90
5901;DHT22;2976;49.764;9.796;2023-04-24T05:11:23;9.20;99.90
5901;DHT22;2976;49.764;9.796;2023-04-24T05:13:49;9.10;99.90
5901;DHT22;2976;49.764;9.796;2023-04-24T05:16:14;9.20;99.90
5901;DHT22;2976;49.764;9.796;2023-04-24T05:18:41;9.20;99.90
5901;DHT22;2976;49.764;9.796;2023-04-24T05:21:06;9.20;99.90
5901;DHT22;2976;49.764;9.796;2023-04-24T05:23:32;9.10;99.90
5901;DHT22;2976;49.764;9.796;2023-04-24T05:25:57;9.10;99.90
5901;DHT22;2976;49.764;9.796;2023-04-24T05:28:23;9.10;99.90
5901;DHT22;2976;49.764;9.796;2023-04-24T05:30:48;9.10;99.90
5901;DHT22;2976;49.764;9.796;2023-04-24T05:33:14;9.00;99.90
5901;DHT22;2976;49.764;9.796;2023-04-24T05:35:40;9.10;99.90
5901;DHT22;2976;49.764;9.796;2023-04-24T05:38:11;9.10;99.90
5901;DHT22;2976;49.764;9.796;2023-04-24T05:40:36;9.20;99.90
5901;DHT22;2976;49.764;9.796;2023-04-24T05:43:02;9.20;99.90
5901;DHT22;2976;49.764;9.796;2023-04-24T05:45:27;9.20;99.90
5901;DHT22;2976;49.764;9.796;2023-04-24T05:47:53;9.30;99.90
5901;DHT22;2976;49.764;9.796;2023-04-24T05:50:19;9.40;99.90
5901;DHT22;2976;49.764;9.796;2023-04-24T05:52:44;9.60;99.90
5901;DHT22;2976;49.764;9.796;2023-04-24T05:55:10;9.70;99.90
5901;DHT22;2976;49.764;9.796;2023-04-24T05:57:35;9.70;99.90
5901;DHT22;2976;49.764;9.796;2023-04-24T06:00:01;9.80;99.90
5901;DHT22;2976;49.764;9.796;2023-04-24T06:02:26;9.90;99.90
5901;DHT22;2976;49.764;9.796;2023-04-24T06:04:52;10.20;99.90
5901;DHT22;2976;49.764;9.796;2023-04-24T06:07:18;10.40;99.90
5901;DHT22;2976;49.764;9.796;2023-04-24T06:09:43;10.40;99.90
5901;DHT22;2976;49.764;9.796;2023-04-24T06:12:09;10.30;99.90
5901;DHT22;2976;49.764;9.796;2023-04-24T06:14:35;10.50;99.90
5901;DHT22;2976;49.764;9.796;2023-04-24T06:17:00;10.50;99.90
5901;DHT22;2976;49.764;9.796;2023-04-24T06:19:26;10.70;99.90
5901;DHT22;2976;49.764;9.796;2023-04-24T06:21:51;11.10;99.90
5901;DHT22;2976;49.764;9.796;2023-04-24T06:24:17;11.00;99.90
5901;DHT22;2976;49.764;9.796;2023-04-24T06:26:42;10.90;99.90
5901;DHT22;2976;49.764;9.796;2023-04-24T06:29:08;10.90;99.90
5901;DHT22;2976;49.764;9.796;2023-04-24T06:31:33;10.90;99.90
5901;DHT22;2976;49.764;9.796;2023-04-24T06:34:02;11.00;99.90
5901;DHT22;2976;49.764;9.796;2023-04-24T06:36:28;11.30;99.90
5901;DHT22;2976;49.764;9.796;2023-04-24T06:38:54;11.20;99.90
5901;DHT22;2976;49.764;9.796;2023-04-24T06:41:19;11.10;99.90
5901;DHT22;2976;49.764;9.796;2023-04-24T06:43:45;11.30;99.90
5901;DHT22;2976;49.764;9.796;2023-04-24T06:46:10;11.50;99.90
5901;DHT22;2976;49.764;9.796;2023-04-24T06:48:37;11.80;99.90
5901;DHT22;2976;49.764;9.796;2023-04-24T06:51:02;11.70;99.90
5901;DHT22;2976;49.764;9.796;2023-04-24T06:53:28;11.80;99.90
5901;DHT22;2976;49.764;9.796;2023-04-24T06:55:54;11.70;99.90
5901;DHT22;2976;49.764;9.796;2023-04-24T06:58:20;11.70;99.90
5901;DHT22;2976;49.764;9.796;2023-04-24T07:00:45;11.80;99.90
5901;DHT22;2976;49.764;9.796;2023-04-24T07:03:11;12.20;99.90
5901;DHT22;2976;49.764;9.796;2023-04-24T07:05:36;12.60;99.90
5901;DHT22;2976;49.764;9.796;2023-04-24T07:08:03;12.40;99.90
5901;DHT22;2976;49.764;9.796;2023-04-24T07:10:29;12.50;99.90
5901;DHT22;2976;49.764;9.796;2023-04-24T07:12:55;12.30;99.90
5901;DHT22;2976;49.764;9.796;2023-04-24T07:15:24;12.00;99.90
5901;DHT22;2976;49.764;9.796;2023-04-24T07:17:49;11.50;99.90
5901;DHT22;2976;49.764;9.796;2023-04-24T07:20:15;11.10;99.90
5901;DHT22;2976;49.764;9.796;2023-04-24T07:22:41;11.00;99.90
5901;DHT22;2976;49.764;9.796;2023-04-24T07:25:07;11.20;99.90
5901;DHT22;2976;49.764;9.796;2023-04-24T07:27:33;11.20;99.90
5901;DHT22;2976;49.764;9.796;2023-04-24T07:29:59;11.30;99.90
5901;DHT22;2976;49.764;9.796;2023-04-24T07:32:24;11.40;99.90
5901;DHT22;2976;49.764;9.796;2023-04-24T07:34:50;11.30;99.90
5901;DHT22;2976;49.764;9.796;2023-04-24T07:37:15;11.20;99.90
5901;DHT22;2976;49.764;9.796;2023-04-24T07:39:41;11.10;99.90
5901;DHT22;2976;49.764;9.796;2023-04-24T07:42:06;11.20;99.90
5901;DHT22;2976;49.764;9.796;2023-04-24T07:44:32;11.70;99.90
5901;DHT22;2976;49.764;9.796;2023-04-24T07:46:58;12.00;99.90
5901;DHT22;2976;49.764;9.796;2023-04-24T07:49:23;12.20;99.90
5901;DHT22;2976;49.764;9.796;2023-04-24T07:51:49;12.30;99.90
5901;DHT22;2976;49.764;9.796;2023-04-24T07:54:15;11.80;99.90
5901;DHT22;2976;49.764;9.796;2023-04-24T07:56:41;11.50;99.90
5901;DHT22;2976;49.764;9.796;2023-04-24T07:59:08;11.50;99.90
5901;DHT22;2976;49.764;9.796;2023-04-24T08:01:35;11.30;99.90
5901;DHT22;2976;49.764;9.796;2023-04-24T08:04:01;11.20;99.90
5901;DHT22;2976;49.764;9.796;2023-04-24T08:06:26;11.10;99.90
5901;DHT22;2976;49.764;9.796;2023-04-24T08:08:55;11.00;99.90
5901;DHT22;2976;49.764;9.796;2023-04-24T08:11:21;10.90;99.90
5901;DHT22;2976;49.764;9.796;2023-04-24T08:13:47;10.80;99.90
5901;DHT22;2976;49.764;9.796;2023-04-24T08:16:12;10.90;99.90
5901;DHT22;2976;49.764;9.796;2023-04-24T08:18:38;11.00;99.90
5901;DHT22;2976;49.764;9.796;2023-04-24T08:21:03;10.90;99.90
5901;DHT22;2976;49.764;9.796;2023-04-24T08:23:29;10.60;99.90
5901;DHT22;2976;49.764;9.796;2023-04-24T08:25:55;10.40;99.90
5901;DHT22;2976;49.764;9.796;2023-04-24T08:28:20;10.30;99.90
5901;DHT22;2976;49.764;9.796;2023-04-24T08:30:46;10.20;99.90
5901;DHT22;2976;49.764;9.796;2023-04-24T08:33:22;10.10;99.90
5901;DHT22;2976;49.764;9.796;2023-04-24T08:35:48;9.90;99.90
5901;DHT22;2976;49.764;9.796;2023-04-24T08:38:13;9.70;99.90
5901;DHT22;2976;49.764;9.796;2023-04-24T08:40:39;9.60;99.90
5901;DHT22;2976;49.764;9.796;2023-04-24T08:43:05;9.50;99.90
5901;DHT22;2976;49.764;9.796;2023-04-24T08:45:32;9.70;99.90
5901;DHT22;2976;49.764;9.796;2023-04-24T08:47:58;9.80;99.90
5901;DHT22;2976;49.764;9.796;2023-04-24T08:50:25;10.00;99.90
5901;DHT22;2976;49.764;9.796;2023-04-24T08:52:51;10.30;99.90
5901;DHT22;2976;49.764;9.796;2023-04-24T08:55:19;10.60;99.90
5901;DHT22;2976;49.764;9.796;2023-04-24T08:57:49;10.80;99.90
5901;DHT22;2976;49.764;9.796;2023-04-24T09:00:15;11.00;99.90
5901;DHT22;2976;49.764;9.796;2023-04-24T09:02:42;11.30;99.90
5901;DHT22;2976;49.764;9.796;2023-04-24T09:05:12;11.90;99.90
5901;DHT22;2976;49.764;9.796;2023-04-24T09:07:39;12.20;99.90
5901;DHT22;2976;49.764;9.796;2023-04-24T09:10:07;12.50;99.90
5901;DHT22;2976;49.764;9.796;2023-04-24T09:12:34;12.80;99.90
5901;DHT22;2976;49.764;9.796;2023-04-24T09:15:01;13.30;99.90
5901;DHT22;2976;49.764;9.796;2023-04-24T09:17:28;12.90;99.90
5901;DHT22;2976;49.764;9.796;2023-04-24T09:19:55;12.80;99.90
5901;DHT22;2976;49.764;9.796;2023-04-24T09:22:21;12.90;99.90
5901;DHT22;2976;49.764;9.796;2023-04-24T09:24:47;13.00;99.90
5901;DHT22;2976;49.764;9.796;2023-04-24T09:27:13;12.90;99.90
5901;DHT22;2976;49.764;9.796;2023-04-24T09:29:56;12.80;99.90
5901;DHT22;2976;49.764;9.796;2023-04-24T09:32:23;12.70;99.90
5901;DHT22;2976;49.764;9.796;2023-04-24T09:35:05;12.50;99.90
5901;DHT22;2976;49.764;9.796;2023-04-24T09:37:35;12.80;99.90
5901;DHT22;2976;49.764;9.796;2023-04-24T09:42:33;12.10;99.90
5901;DHT22;2976;49.764;9.796;2023-04-24T09:44:58;12.10;99.90
5901;DHT22;2976;49.764;9.796;2023-04-24T09:47:24;12.00;99.90
5901;DHT22;2976;49.764;9.796;2023-04-24T09:49:49;11.80;99.90
5901;DHT22;2976;49.764;9.796;2023-04-24T09:52:15;11.80;99.90
5901;DHT22;2976;49.764;9.796;2023-04-24T09:54:41;11.70;99.90
5901;DHT22;2976;49.764;9.796;2023-04-24T09:57:09;11.50;99.90
5901;DHT22;2976;49.764;9.796;2023-04-24T09:59:35;11.20;99.90
5901;DHT22;2976;49.764;9.796;2023-04-24T10:02:00;11.20;99.90
5901;DHT22;2976;49.764;9.796;2023-04-24T10:04:27;11.50;99.90
5901;DHT22;2976;49.764;9.796;2023-04-24T10:06:55;12.20;99.90
5901;DHT22;2976;49.764;9.796;2023-04-24T10:09:23;12.50;99.90
5901;DHT22;2976;49.764;9.796;2023-04-24T10:11:50;12.80;99.90
5901;DHT22;2976;49.764;9.796;2023-04-24T10:14:21;13.10;99.90
5901;DHT22;2976;49.764;9.796;2023-04-24T10:16:48;13.30;99.90
5901;DHT22;2976;49.764;9.796;2023-04-24T10:19:15;13.50;99.20
5901;DHT22;2976;49.764;9.796;2023-04-24T10:21:43;13.40;96.40
5901;DHT22;2976;49.764;9.796;2023-04-24T10:24:15;12.90;99.10
5901;DHT22;2976;49.764;9.796;2023-04-24T10:26:42;12.20;99.90
5901;DHT22;2976;49.764;9.796;2023-04-24T10:29:08;11.90;99.90
5901;DHT22;2976;49.764;9.796;2023-04-24T10:31:37;11.90;99.70
5901;DHT22;2976;49.764;9.796;2023-04-24T10:34:04;11.70;99.90
5901;DHT22;2976;49.764;9.796;2023-04-24T10:36:31;11.60;99.90
5901;DHT22;2976;49.764;9.796;2023-04-24T10:38:59;11.50;99.90
5901;DHT22;2976;49.764;9.796;2023-04-24T10:41:26;11.20;99.90
5901;DHT22;2976;49.764;9.796;2023-04-24T10:44:09;11.10;99.90
5901;DHT22;2976;49.764;9.796;2023-04-24T10:46:35;10.90;99.90
5901;DHT22;2976;49.764;9.796;2023-04-24T10:49:05;10.90;99.90
5901;DHT22;2976;49.764;9.796;2023-04-24T10:51:49;10.90;99.90
5901;DHT22;2976;49.764;9.796;2023-04-24T10:59:47;11.20;99.90
5901;DHT22;2976;49.764;9.796;2023-04-24T11:02:17;11.60;99.90
5901;DHT22;2976;49.764;9.796;2023-04-24T11:04:43;11.80;99.90
5901;DHT22;2976;49.764;9.796;2023-04-24T11:07:10;11.50;99.90
5901;DHT22;2976;49.764;9.796;2023-04-24T11:09:36;11.20;99.90
5901;DHT22;2976;49.764;9.796;2023-04-24T11:12:05;11.00;99.90
5901;DHT22;2976;49.764;9.796;2023-04-24T11:14:59;10.80;99.90
5901;DHT22;2976;49.764;9.796;2023-04-24T11:17:29;10.80;99.90
5901;DHT22;2976;49.764;9.796;2023-04-24T11:20:01;10.90;99.90
5901;DHT22;2976;49.764;9.796;2023-04-24T11:22:28;11.10;99.90
5901;DHT22;2976;49.764;9.796;2023-04-24T11:24:54;11.20;99.90
5901;DHT22;2976;49.764;9.796;2023-04-24T11:27:22;11.20;99.90
5901;DHT22;2976;49.764;9.796;2023-04-24T11:32:40;11.00;99.90
5901;DHT22;2976;49.764;9.796;2023-04-24T11:35:12;10.90;99.90
5901;DHT22;2976;49.764;9.796;2023-04-24T11:37:40;10.90;99.90
5901;DHT22;2976;49.764;9.796;2023-04-24T11:40:07;10.90;99.90
5901;DHT22;2976;49.764;9.796;2023-04-24T11:42:34;10.90;99.90
5901;DHT22;2976;49.764;9.796;2023-04-24T11:45:00;10.90;99.90
5901;DHT22;2976;49.764;9.796;2023-04-24T11:47:30;10.80;99.90
5901;DHT22;2976;49.764;9.796;2023-04-24T11:49:58;10.80;99.90
5901;DHT22;2976;49.764;9.796;2023-04-24T11:52:25;10.60;99.90
5901;DHT22;2976;49.764;9.796;2023-04-24T11:54:50;10.40;99.90
5901;DHT22;2976;49.764;9.796;2023-04-24T11:57:20;10.40;99.90
5901;DHT22;2976;49.764;9.796;2023-04-24T11:59:46;10.60;99.90
5901;DHT22;2976;49.764;9.796;2023-04-24T12:02:22;10.90;99.90
5901;DHT22;2976;49.764;9.796;2023-04-24T12:04:48;11.40;99.90
5901;DHT22;2976;49.764;9.796;2023-04-24T12:07:14;11.70;99.90
5901;DHT22;2976;49.764;9.796;2023-04-24T12:09:44;12.10;99.90
5901;DHT22;2976;49.764;9.796;2023-04-24T12:12:15;12.30;99.90
5901;DHT22;2976;49.764;9.796;2023-04-24T12:14:44;12.20;99.90
5901;DHT22;2976;49.764;9.796;2023-04-24T12:17:10;12.20;99.90
5901;DHT22;2976;49.764;9.796;2023-04-24T12:19:36;12.20;99.90
5901;DHT22;2976;49.764;9.796;2023-04-24T12:22:03;12.10;99.80
5901;DHT22;2976;49.764;9.796;2023-04-24T12:24:30;12.20;99.90
5901;DHT22;2976;49.764;9.796;2023-04-24T12:26:56;12.50;98.80
5901;DHT22;2976;49.764;9.796;2023-04-24T12:29:22;12.40;98.90
5901;DHT22;2976;49.764;9.796;2023-04-24T12:31:48;12.30;99.70
5901;DHT22;2976;49.764;9.796;2023-04-24T12:34:21;12.30;99.90
5901;DHT22;2976;49.764;9.796;2023-04-24T12:36:47;12.20;99.90
5901;DHT22;2976;49.764;9.796;2023-04-24T12:39:17;12.40;99.90
5901;DHT22;2976;49.764;9.796;2023-04-24T12:42:10;12.30;99.90
5901;DHT22;2976;49.764;9.796;2023-04-24T12:44:36;12.70;99.90
5901;DHT22;2976;49.764;9.796;2023-04-24T12:47:02;12.80;98.50
5901;DHT22;2976;49.764;9.796;2023-04-24T12:49:30;12.80;99.90
5901;DHT22;2976;49.764;9.796;2023-04-24T12:51:56;12.40;96.30
5901;DHT22;2976;49.764;9.796;2023-04-24T12:54:22;12.40;99.10
5901;DHT22;2976;49.764;9.796;2023-04-24T12:56:47;12.40;99.50
5901;DHT22;2976;49.764;9.796;2023-04-24T12:59:13;12.40;99.90
5901;DHT22;2976;49.764;9.796;2023-04-24T13:01:39;12.30;99.90
5901;DHT22;2976;49.764;9.796;2023-04-24T13:04:05;11.90;99.90
5901;DHT22;2976;49.764;9.796;2023-04-24T13:06:31;11.70;99.90
5901;DHT22;2976;49.764;9.796;2023-04-24T13:08:56;11.50;99.90
5901;DHT22;2976;49.764;9.796;2023-04-24T13:11:23;11.50;99.90
5901;DHT22;2976;49.764;9.796;2023-04-24T13:13:49;11.60;99.90
5901;DHT22;2976;49.764;9.796;2023-04-24T13:16:15;11.60;99.90
5901;DHT22;2976;49.764;9.796;2023-04-24T13:18:40;11.50;99.90
5901;DHT22;2976;49.764;9.796;2023-04-24T13:21:06;11.60;99.90
5901;DHT22;2976;49.764;9.796;2023-04-24T13:23:31;11.70;99.90
5901;DHT22;2976;49.764;9.796;2023-04-24T13:25:57;11.80;99.90
5901;DHT22;2976;49.764;9.796;2023-04-24T13:28:23;11.80;99.90
5901;DHT22;2976;49.764;9.796;2023-04-24T13:30:50;11.80;99.90
5901;DHT22;2976;49.764;9.796;2023-04-24T13:33:15;11.80;99.90
5901;DHT22;2976;49.764;9.796;2023-04-24T13:35:41;11.80;99.90
5901;DHT22;2976;49.764;9.796;2023-04-24T13:38:06;11.60;99.90
5901;DHT22;2976;49.764;9.796;2023-04-24T13:40:32;11.40;99.90
5901;DHT22;2976;49.764;9.796;2023-04-24T13:42:58;11.20;99.90
5901;DHT22;2976;49.764;9.796;2023-04-24T13:45:23;11.10;99.90
5901;DHT22;2976;49.764;9.796;2023-04-24T13:47:49;11.00;99.90
5901;DHT22;2976;49.764;9.796;2023-04-24T13:50:14;10.90;99.90
5901;DHT22;2976;49.764;9.796;2023-04-24T13:52:40;10.80;99.90
5901;DHT22;2976;49.764;9.796;2023-04-24T13:55:06;10.60;99.90
5901;DHT22;2976;49.764;9.796;2023-04-24T13:57:32;10.40;99.90
5901;DHT22;2976;49.764;9.796;2023-04-24T13:59:58;9.90;99.90
5901;DHT22;2976;49.764;9.796;2023-04-24T14:02:27;9.50;99.90
5901;DHT22;2976;49.764;9.796;2023-04-24T14:04:52;9.40;99.90
5901;DHT22;2976;49.764;9.796;2023-04-24T14:07:18;9.30;99.90
5901;DHT22;2976;49.764;9.796;2023-04-24T14:09:43;9.20;99.90
5901;DHT22;2976;49.764;9.796;2023-04-24T14:12:09;9.00;99.90
5901;DHT22;2976;49.764;9.796;2023-04-24T14:14:35;9.00;99.90
5901;DHT22;2976;49.764;9.796;2023-04-24T14:17:00;9.20;99.90
5901;DHT22;2976;49.764;9.796;2023-04-24T14:19:26;9.50;99.90
5901;DHT22;2976;49.764;9.796;2023-04-24T14:21:51;10.10;99.90
5901;DHT22;2976;49.764;9.796;2023-04-24T14:24:17;10.30;99.90
5901;DHT22;2976;49.764;9.796;2023-04-24T14:26:42;10.50;99.90
5901;DHT22;2976;49.764;9.796;2023-04-24T14:29:08;10.70;99.90
5901;DHT22;2976;49.764;9.796;2023-04-24T14:31:34;11.00;99.90
5901;DHT22;2976;49.764;9.796;2023-04-24T14:33:59;11.20;99.90
5901;DHT22;2976;49.764;9.796;2023-04-24T14:36:25;11.40;99.90
5901;DHT22;2976;49.764;9.796;2023-04-24T14:38:50;11.60;99.90
5901;DHT22;2976;49.764;9.796;2023-04-24T14:41:16;11.60;99.90
5901;DHT22;2976;49.764;9.796;2023-04-24T14:43:42;11.60;99.90
5901;DHT22;2976;49.764;9.796;2023-04-24T14:46:07;11.70;99.90
5901;DHT22;2976;49.764;9.796;2023-04-24T14:48:33;11.70;99.90
5901;DHT22;2976;49.764;9.796;2023-04-24T14:50:58;11.60;99.90
5901;DHT22;2976;49.764;9.796;2023-04-24T14:53:24;11.60;99.90
5901;DHT22;2976;49.764;9.796;2023-04-24T14:55:50;11.80;99.90
5901;DHT22;2976;49.764;9.796;2023-04-24T14:58:15;12.10;99.90
5901;DHT22;2976;49.764;9.796;2023-04-24T15:00:41;12.20;99.90
5901;DHT22;2976;49.764;9.796;2023-04-24T15:03:06;12.20;99.90
5901;DHT22;2976;49.764;9.796;2023-04-24T15:05:32;12.10;99.40
5901;DHT22;2976;49.764;9.796;2023-04-24T15:07:58;12.00;99.90
5901;DHT22;2976;49.764;9.796;2023-04-24T15:10:23;12.10;99.10
5901;DHT22;2976;49.764;9.796;2023-04-24T15:12:50;12.00;98.70
5901;DHT22;2976;49.764;9.796;2023-04-24T15:15:16;12.00;99.90
5901;DHT22;2976;49.764;9.796;2023-04-24T15:17:42;11.90;98.80
5901;DHT22;2976;49.764;9.796;2023-04-24T15:20:07;11.90;99.90
5901;DHT22;2976;49.764;9.796;2023-04-24T15:22:33;11.90;99.90
5901;DHT22;2976;49.764;9.796;2023-04-24T15:24:59;11.90;98.70
5901;DHT22;2976;49.764;9.796;2023-04-24T15:27:25;11.70;98.90
5901;DHT22;2976;49.764;9.796;2023-04-24T15:29:50;11.60;99.80
5901;DHT22;2976;49.764;9.796;2023-04-24T15:32:16;11.60;99.60
5901;DHT22;2976;49.764;9.796;2023-04-24T15:34:41;11.50;99.90
5901;DHT22;2976;49.764;9.796;2023-04-24T15:37:07;11.50;99.50
5901;DHT22;2976;49.764;9.796;2023-04-24T15:39:32;11.60;99.90
5901;DHT22;2976;49.764;9.796;2023-04-24T15:41:59;11.70;99.90
5901;DHT22;2976;49.764;9.796;2023-04-24T15:44:25;11.60;98.90
5901;DHT22;2976;49.764;9.796;2023-04-24T15:46:51;11.70;99.00
5901;DHT22;2976;49.764;9.796;2023-04-24T15:49:17;11.50;98.50
5901;DHT22;2976;49.764;9.796;2023-04-24T15:51:42;11.50;99.90
5901;DHT22;2976;49.764;9.796;2023-04-24T15:54:08;11.50;99.90
5901;DHT22;2976;49.764;9.796;2023-04-24T15:56:33;11.60;99.90
5901;DHT22;2976;49.764;9.796;2023-04-24T15:59:01;11.70;99.90
5901;DHT22;2976;49.764;9.796;2023-04-24T16:01:27;11.60;99.90
5901;DHT22;2976;49.764;9.796;2023-04-24T16:03:52;11.70;99.90
5901;DHT22;2976;49.764;9.796;2023-04-24T16:06:18;11.90;99.90
5901;DHT22;2976;49.764;9.796;2023-04-24T16:08:44;12.00;99.90
5901;DHT22;2976;49.764;9.796;2023-04-24T16:11:09;12.10;99.90